Time;durP1;ratioP1;P1;durP2;ratioP2;P2;SDS_P1;SDS_P2;PMS_P1;PMS_P2;Temp;Humidity;BMP_temperature;BMP_pressure;BME280_temperature;BME280_humidity;BME280_pressure;Samples;Min_cycle;Max_cycle;Signal;HPM_P1;HPM_P2
2021/01/03 00:00:33;;;;;;;57.35;25.02;;;5.90;99.90;;;;;;5033225;28;20199;-81
2021/01/03 00:03:00;;;;;;;58.50;24.98;;;5.90;99.90;;;;;;5032085;28;20199;-80
2021/01/03 00:05:29;;;;;;;61.80;25.65;;;5.90;99.90;;;;;;5033005;28;20200;-81
2021/01/03 00:07:57;;;;;;;60.78;25.30;;;5.80;99.90;;;;;;5030350;28;20277;-81
2021/01/03 00:10:24;;;;;;;60.55;25.52;;;5.90;99.90;;;;;;5031941;28;20222;-81
2021/01/03 00:12:51;;;;;;;58.00;24.67;;;5.90;99.90;;;;;;5031840;28;20294;-80
2021/01/03 00:15:24;;;;;;;62.20;23.85;;;5.80;99.90;;;;;;5031433;28;20554;-81
2021/01/03 00:17:52;;;;;;;57.22;24.27;;;5.80;99.90;;;;;;5031420;28;20204;-80
2021/01/03 00:20:22;;;;;;;65.50;25.92;;;5.80;99.90;;;;;;5032909;28;20271;-81
2021/01/03 00:22:49;;;;;;;64.32;25.73;;;5.80;99.90;;;;;;5030409;28;20200;-81
2021/01/03 00:25:17;;;;;;;63.72;25.35;;;5.90;99.90;;;;;;5031865;28;20265;-81
2021/01/03 00:27:43;;;;;;;62.65;25.15;;;5.90;99.90;;;;;;5029107;28;20290;-82
2021/01/03 00:30:12;;;;;;;63.25;24.92;;;5.90;99.90;;;;;;5033115;28;20275;-81
2021/01/03 00:32:39;;;;;;;60.80;26.48;;;5.90;99.90;;;;;;5030312;28;20301;-80
2021/01/03 00:35:13;;;;;;;64.07;25.80;;;5.90;99.90;;;;;;5032925;28;20224;-81
2021/01/03 00:37:40;;;;;;;59.95;24.85;;;5.90;99.90;;;;;;5029893;28;20595;-81
2021/01/03 00:40:10;;;;;;;60.42;24.98;;;5.90;99.90;;;;;;5032673;28;20203;-80
2021/01/03 00:42:38;;;;;;;67.10;25.70;;;5.90;99.90;;;;;;5029369;28;20660;-81
2021/01/03 00:45:07;;;;;;;58.67;24.95;;;5.90;99.90;;;;;;5031686;28;20192;-80
2021/01/03 00:47:34;;;;;;;59.80;25.33;;;5.90;99.90;;;;;;5031548;28;20210;-81
2021/01/03 00:50:01;;;;;;;60.78;26.02;;;5.90;99.90;;;;;;5032697;28;20195;-80
2021/01/03 00:52:28;;;;;;;61.92;26.52;;;5.90;99.90;;;;;;5032582;28;20254;-80
2021/01/03 00:54:54;;;;;;;60.65;25.95;;;5.90;99.90;;;;;;5032545;28;20200;-80
2021/01/03 00:57:27;;;;;;;60.65;25.77;;;6.00;99.90;;;;;;5030677;28;20208;-80
2021/01/03 00:59:53;;;;;;;62.40;25.67;;;6.00;99.90;;;;;;5031848;28;20222;-80
2021/01/03 01:02:19;;;;;;;62.78;26.30;;;6.00;99.90;;;;;;5029508;28;20204;-80
2021/01/03 01:04:46;;;;;;;64.88;26.52;;;6.00;99.90;;;;;;5030969;28;20208;-80
2021/01/03 01:07:12;;;;;;;56.78;25.33;;;6.00;99.90;;;;;;5030288;28;20195;-80
2021/01/03 01:09:40;;;;;;;57.58;25.50;;;6.00;99.90;;;;;;5031269;28;20195;-79
2021/01/03 01:12:07;;;;;;;63.88;25.17;;;6.00;99.90;;;;;;5030550;28;20688;-80
2021/01/03 01:14:33;;;;;;;55.20;24.17;;;6.00;99.90;;;;;;5030718;28;20199;-81
2021/01/03 01:17:00;;;;;;;67.60;25.83;;;6.00;99.90;;;;;;5029950;28;20196;-80
2021/01/03 01:19:26;;;;;;;56.58;23.60;;;6.00;99.90;;;;;;5031881;28;20211;-81
2021/01/03 01:21:53;;;;;;;51.90;23.10;;;6.00;99.90;;;;;;5031288;28;20201;-80
2021/01/03 01:24:19;;;;;;;50.92;21.70;;;6.00;99.90;;;;;;5032432;28;20274;-80
2021/01/03 01:26:50;;;;;;;51.88;22.63;;;6.00;99.90;;;;;;5031340;28;20201;-80
2021/01/03 01:29:16;;;;;;;55.65;21.63;;;6.00;99.90;;;;;;5031876;28;20200;-80
2021/01/03 01:31:43;;;;;;;47.22;20.67;;;6.00;99.90;;;;;;5030918;28;20679;-81
2021/01/03 01:34:09;;;;;;;51.42;21.40;;;6.00;99.90;;;;;;5031739;28;20224;-81
2021/01/03 01:36:36;;;;;;;49.00;21.15;;;6.00;99.90;;;;;;5030529;28;20207;-80
2021/01/03 01:39:03;;;;;;;47.40;22.17;;;6.00;99.90;;;;;;5032018;28;20215;-80
2021/01/03 01:41:30;;;;;;;47.33;20.42;;;6.00;99.90;;;;;;5032041;28;20196;-80
2021/01/03 01:43:57;;;;;;;56.38;22.40;;;6.00;99.90;;;;;;5030879;28;20206;-81
2021/01/03 01:46:30;;;;;;;48.65;21.50;;;6.00;99.90;;;;;;5032116;28;20203;-81
2021/01/03 01:48:56;;;;;;;49.70;21.92;;;6.00;99.90;;;;;;5029193;28;20215;-80
2021/01/03 01:51:27;;;;;;;56.05;23.10;;;6.00;99.90;;;;;;5030581;28;20257;-81
2021/01/03 01:53:59;;;;;;;49.63;22.20;;;6.00;99.90;;;;;;5031346;28;20282;-81
2021/01/03 01:56:31;;;;;;;51.00;22.65;;;6.00;99.90;;;;;;5031307;28;20249;-81
2021/01/03 01:59:06;;;;;;;54.25;23.52;;;6.10;99.90;;;;;;5029548;28;20209;-81
2021/01/03 02:01:41;;;;;;;50.45;23.83;;;6.00;99.90;;;;;;5030769;28;20195;-81
2021/01/03 02:04:19;;;;;;;56.75;23.88;;;6.10;99.90;;;;;;5029717;28;20219;-81
2021/01/03 02:06:55;;;;;;;56.60;22.60;;;6.10;99.90;;;;;;5029752;28;20195;-80
2021/01/03 02:09:32;;;;;;;52.88;23.67;;;6.10;99.90;;;;;;5030390;28;20214;-80
2021/01/03 02:12:11;;;;;;;46.85;21.48;;;6.10;99.90;;;;;;5029955;28;20199;-81
2021/01/03 02:14:39;;;;;;;49.70;23.10;;;6.10;99.90;;;;;;5032217;28;20687;-81
2021/01/03 02:17:07;;;;;;;43.42;21.13;;;6.10;99.90;;;;;;5029685;28;20215;-81
2021/01/03 02:19:35;;;;;;;49.63;21.75;;;6.10;99.90;;;;;;5030940;28;20259;-81
2021/01/03 02:22:15;;;;;;;45.85;21.08;;;6.10;99.90;;;;;;5030402;28;20196;-80
2021/01/03 02:24:46;;;;;;;46.17;21.13;;;6.10;99.90;;;;;;5033282;28;20219;-81
2021/01/03 02:27:20;;;;;;;48.33;21.55;;;6.10;99.90;;;;;;5034300;28;20208;-80
2021/01/03 02:29:57;;;;;;;47.40;21.83;;;6.10;99.90;;;;;;5035008;28;20195;-81
2021/01/03 02:32:25;;;;;;;45.60;21.27;;;6.10;99.90;;;;;;5031728;28;20214;-81
2021/01/03 02:34:53;;;;;;;48.03;21.92;;;6.10;99.90;;;;;;5033098;28;20268;-80
2021/01/03 02:37:24;;;;;;;54.58;22.80;;;6.10;99.90;;;;;;5032301;28;20646;-81
2021/01/03 02:39:56;;;;;;;50.35;22.55;;;6.10;99.90;;;;;;5034623;28;20653;-81
2021/01/03 02:42:27;;;;;;;51.75;23.73;;;6.10;99.90;;;;;;5032585;28;20196;-82
2021/01/03 02:44:53;;;;;;;44.92;21.17;;;6.10;99.90;;;;;;5033391;28;20239;-80
2021/01/03 02:47:25;;;;;;;54.25;22.92;;;6.10;99.90;;;;;;5031448;28;20208;-80
2021/01/03 02:49:51;;;;;;;55.28;23.52;;;6.20;99.90;;;;;;5031653;28;20230;-80
2021/01/03 02:52:26;;;;;;;54.65;23.30;;;6.20;99.90;;;;;;5032660;28;20299;-82
2021/01/03 02:54:53;;;;;;;50.28;22.48;;;6.10;99.90;;;;;;5034181;28;20208;-81
2021/01/03 02:57:19;;;;;;;54.65;21.98;;;6.10;99.90;;;;;;5033146;28;20203;-82
2021/01/03 02:59:46;;;;;;;55.03;23.17;;;6.20;99.90;;;;;;5033456;28;20196;-82
2021/01/03 03:02:13;;;;;;;50.08;22.48;;;6.10;99.90;;;;;;5034140;28;20195;-81
2021/01/03 03:04:39;;;;;;;49.67;21.90;;;6.10;99.90;;;;;;5035036;28;20532;-81
2021/01/03 03:07:06;;;;;;;46.72;21.60;;;6.10;99.90;;;;;;5029455;28;20215;-81
2021/01/03 03:09:32;;;;;;;51.90;23.13;;;6.10;99.90;;;;;;5034568;28;20230;-82
2021/01/03 03:11:59;;;;;;;48.15;22.05;;;6.20;99.90;;;;;;5032423;28;20208;-80
2021/01/03 03:14:25;;;;;;;56.15;22.40;;;6.20;99.90;;;;;;5033254;28;20613;-82
2021/01/03 03:16:56;;;;;;;53.05;23.08;;;6.20;99.90;;;;;;5032440;28;20293;-81
2021/01/03 03:19:22;;;;;;;49.92;23.05;;;6.20;99.90;;;;;;5034491;28;20248;-82
2021/01/03 03:21:50;;;;;;;54.35;22.08;;;6.20;99.90;;;;;;5033638;28;20195;-81
2021/01/03 03:24:16;;;;;;;49.03;22.15;;;6.20;99.90;;;;;;5032544;28;20674;-81
2021/01/03 03:26:43;;;;;;;51.10;22.17;;;6.20;99.90;;;;;;5031382;28;20203;-81
2021/01/03 03:29:09;;;;;;;46.22;21.95;;;6.20;99.90;;;;;;5032776;28;20204;-80
2021/01/03 03:31:35;;;;;;;44.33;20.70;;;6.20;99.90;;;;;;5031886;28;20204;-81
2021/01/03 03:34:04;;;;;;;47.97;20.85;;;6.20;99.90;;;;;;5032609;28;20280;-81
2021/01/03 03:36:31;;;;;;;46.55;20.05;;;6.20;99.90;;;;;;5032713;28;20195;-81
2021/01/03 03:38:57;;;;;;;45.05;20.38;;;6.20;99.90;;;;;;5030802;28;20207;-81
2021/01/03 03:41:24;;;;;;;45.20;21.05;;;6.20;99.90;;;;;;5034092;28;20735;-81
2021/01/03 03:43:53;;;;;;;41.92;19.63;;;6.10;99.90;;;;;;5031165;28;20202;-81
2021/01/03 03:46:20;;;;;;;45.45;20.13;;;6.20;99.90;;;;;;5033918;28;20574;-80
2021/01/03 03:48:46;;;;;;;44.85;20.40;;;6.10;99.90;;;;;;5032581;28;20547;-81
2021/01/03 03:51:16;;;;;;;49.38;20.83;;;6.10;99.90;;;;;;5028051;28;20212;-81
2021/01/03 03:53:42;;;;;;;42.40;19.30;;;6.10;99.90;;;;;;5030895;28;20262;-81
2021/01/03 03:56:09;;;;;;;41.83;20.05;;;6.10;99.90;;;;;;5033391;28;20199;-81
2021/01/03 03:58:36;;;;;;;43.88;20.02;;;6.10;99.90;;;;;;5032221;28;20222;-80
2021/01/03 04:01:02;;;;;;;44.90;20.40;;;6.10;99.90;;;;;;5032719;28;20200;-81
2021/01/03 04:03:29;;;;;;;44.80;21.48;;;6.10;99.90;;;;;;5031249;28;20219;-82
2021/01/03 04:05:55;;;;;;;46.72;20.67;;;6.10;99.90;;;;;;5033866;28;20196;-81
2021/01/03 04:08:22;;;;;;;45.40;20.15;;;6.10;99.90;;;;;;5032147;28;20270;-81
2021/01/03 04:10:49;;;;;;;51.55;20.67;;;6.10;99.90;;;;;;5033242;28;20196;-81
2021/01/03 04:13:16;;;;;;;45.13;20.25;;;6.10;99.90;;;;;;5031354;28;20274;-81
2021/01/03 04:15:42;;;;;;;44.80;20.05;;;6.10;99.90;;;;;;5031840;28;20207;-82
2021/01/03 04:18:09;;;;;;;46.60;20.52;;;6.10;99.90;;;;;;5030189;28;20226;-82
2021/01/03 04:20:36;;;;;;;46.25;20.40;;;6.10;99.90;;;;;;5031633;28;20215;-82
2021/01/03 04:23:05;;;;;;;49.50;20.90;;;6.00;99.90;;;;;;5031820;28;20686;-81
2021/01/03 04:25:33;;;;;;;45.60;20.27;;;6.10;99.90;;;;;;5033089;28;20196;-82
2021/01/03 04:27:59;;;;;;;48.60;21.77;;;6.00;99.90;;;;;;5032007;28;20200;-82
2021/01/03 04:30:26;;;;;;;45.80;20.42;;;6.10;99.90;;;;;;5031632;28;20199;-82
2021/01/03 04:32:53;;;;;;;43.22;21.02;;;6.10;99.90;;;;;;5031811;28;20219;-81
2021/01/03 04:35:21;;;;;;;49.03;20.95;;;6.10;99.90;;;;;;5032753;28;20224;-81
2021/01/03 04:37:51;;;;;;;48.22;22.35;;;6.10;99.90;;;;;;5031112;28;20204;-82
2021/01/03 04:40:20;;;;;;;51.13;22.15;;;6.10;99.90;;;;;;5032537;28;20196;-82
2021/01/03 04:42:53;;;;;;;46.15;21.30;;;6.10;99.90;;;;;;5029417;28;20188;-82
2021/01/03 04:45:26;;;;;;;49.83;21.55;;;6.10;99.90;;;;;;5031821;28;20254;-82
2021/01/03 04:47:56;;;;;;;45.00;21.35;;;6.10;99.90;;;;;;5044992;28;20235;-81
2021/01/03 04:50:47;;;;;;;48.35;21.27;;;6.10;99.90;;;;;;5032654;28;20196;-82
2021/01/03 04:53:42;;;;;;;48.45;21.50;;;6.00;99.90;;;;;;5023310;28;20224;-81
2021/01/03 04:56:17;;;;;;;44.35;21.52;;;6.00;99.90;;;;;;5032940;28;20204;-81
2021/01/03 04:58:59;;;;;;;44.75;20.65;;;6.00;99.90;;;;;;5028670;28;20200;-81
2021/01/03 05:02:11;;;;;;;45.90;21.05;;;6.00;99.90;;;;;;5031611;28;20660;-81
2021/01/03 05:04:58;;;;;;;47.55;20.08;;;6.00;99.90;;;;;;5030309;28;20196;-81
2021/01/03 05:07:28;;;;;;;45.50;20.92;;;6.00;99.90;;;;;;5030122;28;20585;-82
2021/01/03 05:10:07;;;;;;;47.97;21.17;;;6.00;99.90;;;;;;5031769;28;20540;-82
2021/01/03 05:12:40;;;;;;;49.13;21.75;;;5.90;99.90;;;;;;5024681;28;20218;-81
2021/01/03 05:15:13;;;;;;;46.38;20.63;;;5.90;99.90;;;;;;5030717;28;20195;-81
2021/01/03 05:17:47;;;;;;;48.63;21.42;;;5.90;99.90;;;;;;5026731;28;20613;-82
2021/01/03 05:20:14;;;;;;;50.75;21.60;;;6.00;99.90;;;;;;5030162;28;20200;-81
2021/01/03 05:22:40;;;;;;;48.85;22.30;;;5.90;99.90;;;;;;5031143;28;20196;-80
2021/01/03 05:25:09;;;;;;;45.10;21.27;;;5.90;99.90;;;;;;5030904;28;20192;-82
2021/01/03 05:27:36;;;;;;;49.05;21.27;;;6.00;99.90;;;;;;5030320;28;20214;-81
2021/01/03 05:30:17;;;;;;;50.90;22.15;;;5.90;99.90;;;;;;5030926;28;20211;-82
2021/01/03 05:32:44;;;;;;;50.05;21.80;;;5.90;99.90;;;;;;5030953;28;20227;-83
2021/01/03 05:35:19;;;;;;;52.33;21.17;;;5.90;99.90;;;;;;5030975;28;20231;-82
2021/01/03 05:37:48;;;;;;;47.20;21.33;;;5.90;99.90;;;;;;5030985;28;20207;-82
2021/01/03 05:40:27;;;;;;;49.55;20.60;;;5.90;99.90;;;;;;5029584;28;20660;-82
2021/01/03 05:43:17;;;;;;;49.17;21.70;;;5.90;99.90;;;;;;5027115;28;20200;-81
2021/01/03 05:46:00;;;;;;;47.70;21.10;;;5.90;99.90;;;;;;5030440;28;20204;-80
2021/01/03 05:48:33;;;;;;;56.08;22.10;;;5.80;99.90;;;;;;5027675;28;20277;-82
2021/01/03 05:50:59;;;;;;;50.13;21.63;;;5.80;99.90;;;;;;5030490;28;20708;-81
2021/01/03 05:53:30;;;;;;;49.65;21.42;;;5.80;99.90;;;;;;5030574;28;20222;-80
2021/01/03 05:55:58;;;;;;;52.60;23.38;;;5.80;99.90;;;;;;5030208;28;20214;-80
2021/01/03 05:58:37;;;;;;;51.88;22.95;;;5.80;99.90;;;;;;5033296;28;20196;-81
2021/01/03 06:01:19;;;;;;;49.38;22.75;;;5.80;99.90;;;;;;5035515;28;20203;-80
2021/01/03 06:04:00;;;;;;;56.53;22.92;;;5.80;99.90;;;;;;5033776;28;20552;-79
2021/01/03 06:06:37;;;;;;;53.30;22.50;;;5.80;99.90;;;;;;5034433;28;20203;-80
2021/01/03 06:09:03;;;;;;;55.00;22.80;;;5.80;99.90;;;;;;5033845;28;20258;-81
2021/01/03 06:11:30;;;;;;;57.97;24.98;;;5.80;99.90;;;;;;5031492;28;20219;-81
2021/01/03 06:13:58;;;;;;;51.60;23.63;;;5.80;99.90;;;;;;5033457;28;20310;-80
2021/01/03 06:16:28;;;;;;;57.58;25.42;;;5.80;99.90;;;;;;5032968;28;20196;-81
2021/01/03 06:19:02;;;;;;;53.22;23.88;;;5.80;99.90;;;;;;5034703;28;20295;-80
2021/01/03 06:21:31;;;;;;;60.60;25.35;;;5.80;99.90;;;;;;5034874;28;20282;-80
2021/01/03 06:24:16;;;;;;;61.90;26.05;;;5.80;99.90;;;;;;5034393;28;20196;-80
2021/01/03 06:26:48;;;;;;;56.33;23.80;;;5.90;99.90;;;;;;5033567;28;20219;-81
2021/01/03 06:29:23;;;;;;;59.42;25.15;;;5.90;99.90;;;;;;5032954;28;20202;-81
2021/01/03 06:32:19;;;;;;;56.97;24.35;;;5.90;99.90;;;;;;5032596;28;20203;-81
2021/01/03 06:34:52;;;;;;;59.97;25.50;;;5.90;99.90;;;;;;5032579;28;20236;-80
2021/01/03 06:37:28;;;;;;;57.58;25.50;;;5.80;99.90;;;;;;5031930;28;20260;-82
2021/01/03 06:40:05;;;;;;;54.65;24.75;;;5.90;99.90;;;;;;5033160;28;20668;-81
2021/01/03 06:43:18;;;;;;;61.90;26.52;;;5.90;99.90;;;;;;5029754;28;20214;-82
2021/01/03 06:46:35;;;;;;;57.22;25.52;;;5.90;99.90;;;;;;5032835;28;20204;-83
2021/01/03 06:49:22;;;;;;;58.17;24.50;;;5.90;99.90;;;;;;5034037;28;20207;-83
2021/01/03 06:52:14;;;;;;;62.55;25.55;;;5.90;99.90;;;;;;5032481;28;20249;-83
2021/01/03 06:55:09;;;;;;;57.20;25.52;;;5.90;99.90;;;;;;5006455;28;20202;-83
2021/01/03 06:58:05;;;;;;;61.22;25.73;;;5.90;99.90;;;;;;5026805;28;20262;-81
2021/01/03 07:00:38;;;;;;;66.40;26.42;;;5.90;99.90;;;;;;5032159;28;20204;-80
2021/01/03 07:03:11;;;;;;;63.15;26.45;;;5.90;99.90;;;;;;5033751;28;20697;-82
2021/01/03 07:05:49;;;;;;;59.70;25.40;;;5.90;99.90;;;;;;5032401;28;20212;-82
2021/01/03 07:08:18;;;;;;;61.15;27.15;;;5.90;99.90;;;;;;5031269;28;20212;-83
2021/01/03 07:10:45;;;;;;;63.90;28.08;;;5.90;99.90;;;;;;5034945;28;20227;-80
2021/01/03 07:13:41;;;;;;;67.65;28.17;;;5.90;99.90;;;;;;5034489;28;20303;-82
2021/01/03 07:16:49;;;;;;;63.53;26.80;;;6.00;99.90;;;;;;5032635;28;20199;-81
2021/01/03 07:19:25;;;;;;;71.20;27.90;;;6.00;99.90;;;;;;5031848;28;20207;-81
2021/01/03 07:21:52;;;;;;;69.57;27.70;;;6.00;99.90;;;;;;5030099;28;20234;-81
2021/01/03 07:24:33;;;;;;;76.63;30.00;;;6.00;99.90;;;;;;5033935;28;20192;-81
2021/01/03 07:27:36;;;;;;;66.22;27.50;;;6.00;99.90;;;;;;5028542;28;20271;-82
2021/01/03 07:30:30;;;;;;;71.95;28.23;;;6.00;99.90;;;;;;5030575;28;20203;-82
2021/01/03 07:33:12;;;;;;;75.70;30.50;;;6.00;99.90;;;;;;5028716;28;20676;-80
2021/01/03 07:35:42;;;;;;;75.05;29.98;;;6.00;99.90;;;;;;5031938;28;20278;-80
2021/01/03 07:38:30;;;;;;;85.28;33.00;;;6.00;99.90;;;;;;5032091;28;20295;-81
2021/01/03 07:41:04;;;;;;;84.10;31.65;;;6.00;99.90;;;;;;5035380;28;20199;-79
2021/01/03 07:43:55;;;;;;;84.13;32.03;;;6.00;99.90;;;;;;5028189;28;20207;-79
2021/01/03 07:46:41;;;;;;;85.97;31.73;;;6.00;99.90;;;;;;5030369;28;20208;-81
2021/01/03 07:49:33;;;;;;;88.00;33.10;;;6.00;99.90;;;;;;5031196;28;20593;-79
2021/01/03 07:52:10;;;;;;;84.47;31.30;;;6.00;99.90;;;;;;5031841;28;20250;-80
2021/01/03 07:54:36;;;;;;;85.68;31.77;;;6.00;99.90;;;;;;5031554;28;20219;-82
2021/01/03 07:57:11;;;;;;;88.72;34.30;;;6.00;99.90;;;;;;5030257;28;20210;-80
2021/01/03 07:59:37;;;;;;;86.60;32.53;;;6.00;99.90;;;;;;5030128;28;20264;-81
2021/01/03 08:02:07;;;;;;;82.20;33.20;;;6.00;99.90;;;;;;5033927;28;20729;-81
2021/01/03 08:04:33;;;;;;;91.88;34.08;;;6.00;99.90;;;;;;5033602;28;20200;-80
2021/01/03 08:07:04;;;;;;;77.43;31.40;;;6.00;99.90;;;;;;5032400;28;20647;-81
2021/01/03 08:09:31;;;;;;;89.00;34.38;;;6.00;99.90;;;;;;5031848;28;20227;-81
2021/01/03 08:12:06;;;;;;;87.22;33.30;;;6.00;99.90;;;;;;5031993;28;20238;-80
2021/01/03 08:14:40;;;;;;;87.45;32.22;;;6.10;99.90;;;;;;5031596;28;20223;-83
2021/01/03 08:17:06;;;;;;;87.28;32.90;;;6.00;99.90;;;;;;5031877;28;20204;-81
2021/01/03 08:19:33;;;;;;;86.90;32.20;;;6.00;99.90;;;;;;5032747;28;20211;-83
2021/01/03 08:22:01;;;;;;;89.28;33.00;;;6.00;99.90;;;;;;5032629;28;20222;-83
2021/01/03 08:24:30;;;;;;;89.85;34.00;;;6.00;99.90;;;;;;5033943;28;20207;-81
2021/01/03 08:27:01;;;;;;;78.15;32.15;;;6.00;99.90;;;;;;5033932;28;20302;-83
2021/01/03 08:29:37;;;;;;;91.35;33.05;;;6.00;99.90;;;;;;5032364;28;20257;-82
2021/01/03 08:32:09;;;;;;;81.68;31.83;;;6.00;99.90;;;;;;5031590;28;20203;-80
2021/01/03 08:34:38;;;;;;;84.53;33.28;;;6.00;99.90;;;;;;5030400;28;20235;-81
2021/01/03 08:37:17;;;;;;;96.13;34.17;;;6.00;99.90;;;;;;5031551;28;20211;-81
2021/01/03 08:39:44;;;;;;;88.75;34.05;;;6.00;99.90;;;;;;5031829;28;20207;-81
2021/01/03 08:42:18;;;;;;;83.30;34.30;;;6.00;99.90;;;;;;5031673;28;20608;-81
2021/01/03 08:44:51;;;;;;;93.82;34.53;;;6.00;99.90;;;;;;5030620;28;20228;-82
2021/01/03 08:47:21;;;;;;;85.75;34.03;;;6.00;99.90;;;;;;5030542;28;20199;-83
2021/01/03 08:49:48;;;;;;;91.90;34.50;;;6.00;99.90;;;;;;5030171;28;20209;-83
2021/01/03 08:52:19;;;;;;;86.93;33.05;;;6.10;99.90;;;;;;5031884;28;20286;-82
2021/01/03 08:54:47;;;;;;;93.35;33.67;;;6.00;99.90;;;;;;5031926;28;20219;-81
2021/01/03 08:57:15;;;;;;;83.45;33.92;;;6.10;99.90;;;;;;5030874;28;20200;-82
2021/01/03 08:59:42;;;;;;;90.70;32.88;;;6.10;99.90;;;;;;5030690;28;20204;-82
2021/01/03 09:02:22;;;;;;;91.22;34.72;;;6.10;99.90;;;;;;5030334;28;20717;-81
2021/01/03 09:04:54;;;;;;;86.53;33.63;;;6.10;99.90;;;;;;5028815;28;20190;-80
2021/01/03 09:07:20;;;;;;;81.07;33.17;;;6.00;99.90;;;;;;5030925;28;20206;-79
2021/01/03 09:09:50;;;;;;;83.00;32.30;;;6.00;99.90;;;;;;5031478;28;20203;-79
2021/01/03 09:12:33;;;;;;;83.22;34.08;;;6.00;99.90;;;;;;5030064;28;20226;-79
2021/01/03 09:15:01;;;;;;;83.07;34.35;;;6.00;99.90;;;;;;5030264;28;20206;-79
2021/01/03 09:17:35;;;;;;;91.32;33.60;;;6.00;99.90;;;;;;5030032;28;20581;-80
2021/01/03 09:20:11;;;;;;;83.55;33.70;;;6.00;99.90;;;;;;5029508;28;20192;-78
2021/01/03 09:22:43;;;;;;;75.32;32.72;;;6.00;99.90;;;;;;5031086;28;20203;-80
2021/01/03 09:25:20;;;;;;;88.47;32.92;;;6.00;99.90;;;;;;5032043;28;20202;-81
2021/01/03 09:27:52;;;;;;;84.53;32.25;;;6.00;99.90;;;;;;5027765;28;20609;-78
2021/01/03 09:30:28;;;;;;;84.35;33.28;;;6.00;99.90;;;;;;5027997;28;20208;-76
2021/01/03 09:33:07;;;;;;;86.07;35.20;;;6.00;99.90;;;;;;5028956;28;20207;-77
2021/01/03 09:35:57;;;;;;;87.10;35.05;;;6.00;99.90;;;;;;5034818;28;20285;-82
2021/01/03 09:38:54;;;;;;;86.78;35.65;;;6.10;99.90;;;;;;5034466;28;20214;-83
2021/01/03 09:41:35;;;;;;;88.10;35.13;;;6.10;99.90;;;;;;5037175;28;20736;-85
2021/01/03 09:44:14;;;;;;;92.30;36.30;;;6.10;99.90;;;;;;5032884;28;20195;-83
2021/01/03 09:46:50;;;;;;;83.43;34.50;;;6.20;99.90;;;;;;5035538;28;20208;-84
2021/01/03 09:49:24;;;;;;;84.05;34.38;;;6.20;99.90;;;;;;5036261;28;20195;-82
2021/01/03 09:52:01;;;;;;;79.68;35.08;;;6.20;99.90;;;;;;5034965;28;20207;-86
2021/01/03 09:54:37;;;;;;;80.22;34.30;;;6.20;99.90;;;;;;5031879;28;20306;-84
2021/01/03 09:57:04;;;;;;;76.70;34.28;;;6.20;99.90;;;;;;5032394;28;20196;-85
2021/01/03 09:59:30;;;;;;;77.93;34.22;;;6.20;99.90;;;;;;5034737;28;20261;-83
2021/01/03 10:02:15;;;;;;;81.63;35.83;;;6.20;99.90;;;;;;5034328;28;21033;-80
2021/01/03 10:04:44;;;;;;;75.28;33.92;;;6.20;99.90;;;;;;5033252;28;20200;-84
2021/01/03 10:07:13;;;;;;;74.40;32.83;;;6.20;99.90;;;;;;5035101;28;20257;-84
2021/01/03 10:09:39;;;;;;;86.32;35.22;;;6.20;99.90;;;;;;5036258;28;20980;-81
2021/01/03 10:12:24;;;;;;;71.28;32.53;;;6.20;99.90;;;;;;5032194;28;20207;-81
2021/01/03 10:15:01;;;;;;;73.65;31.83;;;6.20;99.90;;;;;;5034402;28;20216;-82
2021/01/03 10:17:27;;;;;;;73.70;32.38;;;6.20;99.90;;;;;;5035226;28;20203;-83
2021/01/03 10:19:55;;;;;;;71.05;33.30;;;6.20;99.90;;;;;;5034549;28;20978;-81
2021/01/03 10:22:32;;;;;;;71.57;32.05;;;6.20;99.90;;;;;;5033835;28;20664;-82
2021/01/03 10:25:00;;;;;;;81.75;37.72;;;6.20;99.90;;;;;;5035763;28;20184;-81
2021/01/03 10:27:27;;;;;;;68.15;30.85;;;6.20;99.90;;;;;;5033456;28;20245;-81
2021/01/03 10:29:54;;;;;;;65.88;28.58;;;6.20;99.90;;;;;;5033199;28;20204;-80
2021/01/03 10:32:21;;;;;;;61.33;28.40;;;6.20;99.90;;;;;;5035129;28;20204;-81
2021/01/03 10:34:48;;;;;;;60.10;28.42;;;6.20;99.90;;;;;;5034402;28;20222;-81
2021/01/03 10:37:15;;;;;;;52.63;27.00;;;6.30;99.90;;;;;;5034492;28;20196;-80
2021/01/03 10:39:42;;;;;;;56.47;27.15;;;6.30;99.90;;;;;;5033756;28;20290;-84
2021/01/03 10:42:09;;;;;;;52.47;25.38;;;6.30;99.90;;;;;;5035010;28;20192;-80
2021/01/03 10:44:35;;;;;;;49.13;25.05;;;6.30;99.90;;;;;;5033258;28;20219;-82
2021/01/03 10:47:02;;;;;;;49.85;24.38;;;6.30;99.90;;;;;;5033788;28;20570;-79
2021/01/03 10:49:28;;;;;;;42.13;22.48;;;6.40;99.90;;;;;;5033309;28;20691;-80
2021/01/03 10:51:55;;;;;;;48.55;23.00;;;6.40;99.90;;;;;;5032654;28;20200;-79
2021/01/03 10:54:24;;;;;;;43.95;22.45;;;6.40;99.90;;;;;;5033530;28;20683;-81
2021/01/03 10:56:52;;;;;;;41.60;21.10;;;6.40;99.90;;;;;;5033531;28;20729;-82
2021/01/03 10:59:20;;;;;;;39.00;19.05;;;6.40;99.90;;;;;;5033916;28;20199;-78
2021/01/03 11:01:46;;;;;;;39.40;18.70;;;6.50;99.90;;;;;;5034166;28;20199;-80
2021/01/03 11:04:16;;;;;;;33.45;18.35;;;6.50;99.90;;;;;;5032726;28;20204;-79
2021/01/03 11:06:45;;;;;;;30.73;16.42;;;6.50;99.90;;;;;;5033808;28;20660;-79
2021/01/03 11:09:15;;;;;;;32.47;15.88;;;6.50;99.90;;;;;;5033849;28;20274;-77
2021/01/03 11:11:42;;;;;;;30.63;15.48;;;6.50;99.90;;;;;;5034128;28;20684;-79
2021/01/03 11:14:09;;;;;;;31.88;16.88;;;6.50;99.90;;;;;;5030176;28;20212;-81
2021/01/03 11:16:38;;;;;;;30.63;16.38;;;6.50;99.90;;;;;;5032904;28;20562;-82
2021/01/03 11:19:05;;;;;;;36.22;18.08;;;6.60;99.90;;;;;;5032164;28;20204;-78
2021/01/03 11:21:32;;;;;;;32.72;18.15;;;6.60;99.90;;;;;;5032256;28;20199;-78
2021/01/03 11:23:58;;;;;;;34.03;18.52;;;6.60;99.90;;;;;;5031880;28;20192;-78
2021/01/03 11:26:30;;;;;;;35.38;18.42;;;6.60;99.90;;;;;;5032076;28;20273;-81
2021/01/03 11:28:58;;;;;;;38.45;18.50;;;6.70;99.90;;;;;;5033454;28;20703;-77
2021/01/03 11:31:33;;;;;;;33.08;18.33;;;6.70;99.90;;;;;;5031875;28;20656;-78
2021/01/03 11:34:00;;;;;;;37.42;19.33;;;6.70;99.90;;;;;;5031177;28;20229;-79
2021/01/03 11:36:27;;;;;;;35.83;18.30;;;6.70;99.90;;;;;;5033261;28;20683;-79
2021/01/03 11:38:53;;;;;;;34.65;19.05;;;6.80;99.90;;;;;;5031589;28;20231;-78
2021/01/03 11:41:19;;;;;;;39.08;20.10;;;6.80;99.90;;;;;;5032544;28;20741;-78
2021/01/03 11:43:46;;;;;;;39.95;20.17;;;6.80;99.90;;;;;;5031733;28;20952;-77
2021/01/03 11:46:13;;;;;;;42.92;21.60;;;6.80;99.90;;;;;;5033162;28;20196;-83
2021/01/03 11:48:40;;;;;;;38.92;20.23;;;6.80;99.90;;;;;;5032283;28;20208;-79
2021/01/03 11:51:06;;;;;;;41.63;22.40;;;6.90;99.90;;;;;;5028691;28;20207;-79
2021/01/03 11:53:32;;;;;;;46.92;21.70;;;6.90;99.90;;;;;;5029842;28;20250;-77
2021/01/03 11:55:59;;;;;;;43.15;22.35;;;6.90;99.90;;;;;;5029590;28;20203;-80
2021/01/03 11:58:25;;;;;;;38.58;20.20;;;7.00;99.90;;;;;;5028436;28;22163;-82
2021/01/03 12:00:52;;;;;;;42.28;20.52;;;7.00;99.90;;;;;;5032299;28;20202;-79
2021/01/03 12:03:20;;;;;;;41.40;21.27;;;7.00;99.90;;;;;;5026965;28;20200;-81
2021/01/03 12:05:46;;;;;;;42.03;21.77;;;7.00;99.90;;;;;;5032813;28;20254;-79
2021/01/03 12:08:12;;;;;;;38.25;20.02;;;7.10;99.90;;;;;;5031964;28;20192;-80
2021/01/03 12:10:39;;;;;;;33.13;17.98;;;7.10;99.90;;;;;;5032114;28;20196;-83
2021/01/03 12:13:06;;;;;;;29.40;17.40;;;7.10;99.90;;;;;;5027355;28;20253;-79
2021/01/03 12:15:32;;;;;;;32.72;17.48;;;7.10;99.90;;;;;;5032469;28;20616;-82
2021/01/03 12:17:59;;;;;;;32.10;17.45;;;7.10;99.90;;;;;;5027784;28;20203;-82
2021/01/03 12:20:27;;;;;;;33.13;17.85;;;7.10;99.90;;;;;;5032785;28;20196;-78
2021/01/03 12:22:53;;;;;;;32.65;17.67;;;7.00;99.90;;;;;;5028737;28;20584;-78
2021/01/03 12:25:20;;;;;;;33.60;17.88;;;7.00;99.90;;;;;;5029980;28;20234;-82
2021/01/03 12:27:47;;;;;;;36.67;18.42;;;7.00;99.90;;;;;;5032125;28;20234;-82
2021/01/03 12:30:15;;;;;;;36.15;19.02;;;7.10;99.90;;;;;;5032272;28;20261;-82
2021/01/03 12:32:41;;;;;;;32.30;17.75;;;7.00;99.90;;;;;;5036020;28;20204;-81
2021/01/03 12:35:10;;;;;;;33.33;18.25;;;7.00;99.90;;;;;;5030830;28;20228;-83
2021/01/03 12:37:38;;;;;;;34.15;17.63;;;7.00;99.90;;;;;;5030424;28;20211;-81
2021/01/03 12:40:07;;;;;;;50.20;26.33;;;7.00;99.90;;;;;;5031270;28;20211;-89
2021/01/03 12:42:33;;;;;;;38.38;19.92;;;7.10;99.90;;;;;;5030810;28;20203;-82
2021/01/03 12:44:59;;;;;;;30.95;17.55;;;7.10;99.90;;;;;;5031197;28;20196;-81
2021/01/03 12:47:26;;;;;;;31.98;17.58;;;7.00;99.90;;;;;;5030759;28;20549;-79
2021/01/03 12:49:52;;;;;;;33.97;18.73;;;7.00;99.90;;;;;;5030696;28;20204;-82
2021/01/03 12:52:19;;;;;;;34.33;19.05;;;7.00;99.90;;;;;;5031119;28;20679;-80
2021/01/03 12:54:46;;;;;;;35.08;20.13;;;7.00;99.90;;;;;;5031936;28;20224;-78
2021/01/03 12:57:12;;;;;;;34.55;19.05;;;7.00;99.90;;;;;;5032064;28;20196;-78